sensor_id;sensor_type;location;lat;lon;timestamp;temperature;humidity
29201;DHT22;16244;51.956;12.980;2022-10-01T00:02:04;6.40;99.90
29201;DHT22;16244;51.956;12.980;2022-10-01T00:04:34;6.40;99.90
29201;DHT22;16244;51.956;12.980;2022-10-01T00:07:01;6.50;99.90
29201;DHT22;16244;51.956;12.980;2022-10-01T00:09:31;6.50;99.90
29201;DHT22;16244;51.956;12.980;2022-10-01T00:11:59;6.60;99.90
29201;DHT22;16244;51.956;12.980;2022-10-01T00:14:26;6.60;99.90
29201;DHT22;16244;51.956;12.980;2022-10-01T00:16:54;6.60;99.90
29201;DHT22;16244;51.956;12.980;2022-10-01T00:19:21;6.70;99.90
29201;DHT22;16244;51.956;12.980;2022-10-01T00:21:48;6.70;99.90
29201;DHT22;16244;51.956;12.980;2022-10-01T00:24:15;6.70;99.90
29201;DHT22;16244;51.956;12.980;2022-10-01T00:26:44;6.80;99.90
29201;DHT22;16244;51.956;12.980;2022-10-01T00:29:13;6.80;99.90
29201;DHT22;16244;51.956;12.980;2022-10-01T00:31:41;6.90;99.90
29201;DHT22;16244;51.956;12.980;2022-10-01T00:34:11;6.90;99.90
29201;DHT22;16244;51.956;12.980;2022-10-01T00:36:40;7.00;99.90
29201;DHT22;16244;51.956;12.980;2022-10-01T00:39:08;7.00;99.90
29201;DHT22;16244;51.956;12.980;2022-10-01T00:41:36;7.10;99.90
29201;DHT22;16244;51.956;12.980;2022-10-01T00:44:30;7.10;99.90
29201;DHT22;16244;51.956;12.980;2022-10-01T00:47:02;7.10;99.90
29201;DHT22;16244;51.956;12.980;2022-10-01T00:49:32;7.10;99.90
29201;DHT22;16244;51.956;12.980;2022-10-01T00:52:02;7.10;99.90
29201;DHT22;16244;51.956;12.980;2022-10-01T00:54:36;7.00;99.90
29201;DHT22;16244;51.956;12.980;2022-10-01T00:57:04;7.00;99.90
29201;DHT22;16244;51.956;12.980;2022-10-01T00:59:34;7.00;99.90
29201;DHT22;16244;51.956;12.980;2022-10-01T01:02:02;7.00;99.90
29201;DHT22;16244;51.956;12.980;2022-10-01T01:04:30;6.80;99.90
29201;DHT22;16244;51.956;12.980;2022-10-01T01:07:00;6.70;99.90
29201;DHT22;16244;51.956;12.980;2022-10-01T01:09:30;6.70;99.90
29201;DHT22;16244;51.956;12.980;2022-10-01T01:12:06;6.80;99.90
29201;DHT22;16244;51.956;12.980;2022-10-01T01:14:44;6.90;99.90
29201;DHT22;16244;51.956;12.980;2022-10-01T01:17:19;6.90;99.90
29201;DHT22;16244;51.956;12.980;2022-10-01T01:19:57;7.00;99.90
29201;DHT22;16244;51.956;12.980;2022-10-01T01:22:36;7.00;99.90
29201;DHT22;16244;51.956;12.980;2022-10-01T01:25:15;7.00;99.90
29201;DHT22;16244;51.956;12.980;2022-10-01T01:27:47;7.10;99.90
29201;DHT22;16244;51.956;12.980;2022-10-01T01:30:18;7.10;99.90
29201;DHT22;16244;51.956;12.980;2022-10-01T01:32:50;7.10;99.90
29201;DHT22;16244;51.956;12.980;2022-10-01T01:35:23;7.10;99.90
29201;DHT22;16244;51.956;12.980;2022-10-01T01:37:53;7.00;99.90
29201;DHT22;16244;51.956;12.980;2022-10-01T01:40:22;7.00;99.90
29201;DHT22;16244;51.956;12.980;2022-10-01T01:42:52;7.00;99.90
29201;DHT22;16244;51.956;12.980;2022-10-01T01:45:25;7.00;99.90
29201;DHT22;16244;51.956;12.980;2022-10-01T01:47:56;7.00;99.90
29201;DHT22;16244;51.956;12.980;2022-10-01T01:50:24;7.10;99.90
29201;DHT22;16244;51.956;12.980;2022-10-01T01:52:53;7.10;99.90
29201;DHT22;16244;51.956;12.980;2022-10-01T01:55:21;7.10;99.90
29201;DHT22;16244;51.956;12.980;2022-10-01T01:57:49;7.20;99.90
29201;DHT22;16244;51.956;12.980;2022-10-01T02:00:17;7.20;99.90
29201;DHT22;16244;51.956;12.980;2022-10-01T02:02:49;7.30;99.90
29201;DHT22;16244;51.956;12.980;2022-10-01T02:05:20;7.30;99.90
29201;DHT22;16244;51.956;12.980;2022-10-01T02:10:56;7.30;99.90
29201;DHT22;16244;51.956;12.980;2022-10-01T02:13:34;7.30;99.90
29201;DHT22;16244;51.956;12.980;2022-10-01T02:16:11;7.30;99.90
29201;DHT22;16244;51.956;12.980;2022-10-01T02:18:50;7.30;99.90
29201;DHT22;16244;51.956;12.980;2022-10-01T02:21:24;7.30;99.90
29201;DHT22;16244;51.956;12.980;2022-10-01T02:23:57;7.30;99.90
29201;DHT22;16244;51.956;12.980;2022-10-01T02:26:27;7.30;99.90
29201;DHT22;16244;51.956;12.980;2022-10-01T02:28:57;7.30;99.90
29201;DHT22;16244;51.956;12.980;2022-10-01T02:31:27;7.30;99.90
29201;DHT22;16244;51.956;12.980;2022-10-01T02:33:57;7.30;99.90
29201;DHT22;16244;51.956;12.980;2022-10-01T02:36:26;7.30;99.90
29201;DHT22;16244;51.956;12.980;2022-10-01T02:38:55;7.30;99.90
29201;DHT22;16244;51.956;12.980;2022-10-01T02:41:26;7.20;99.90
29201;DHT22;16244;51.956;12.980;2022-10-01T02:43:56;7.20;99.90
29201;DHT22;16244;51.956;12.980;2022-10-01T02:46:29;7.20;99.90
29201;DHT22;16244;51.956;12.980;2022-10-01T02:48:59;7.20;99.90
29201;DHT22;16244;51.956;12.980;2022-10-01T02:51:36;7.20;99.90
29201;DHT22;16244;51.956;12.980;2022-10-01T02:54:10;7.20;99.90
29201;DHT22;16244;51.956;12.980;2022-10-01T02:56:39;7.20;99.90
29201;DHT22;16244;51.956;12.980;2022-10-01T02:59:24;7.20;99.90
29201;DHT22;16244;51.956;12.980;2022-10-01T03:01:52;7.20;99.90
29201;DHT22;16244;51.956;12.980;2022-10-01T03:04:21;7.20;99.90
29201;DHT22;16244;51.956;12.980;2022-10-01T03:06:48;7.20;99.90
29201;DHT22;16244;51.956;12.980;2022-10-01T03:09:15;7.20;99.90
29201;DHT22;16244;51.956;12.980;2022-10-01T03:11:42;7.20;99.90
29201;DHT22;16244;51.956;12.980;2022-10-01T03:14:09;7.20;99.90
29201;DHT22;16244;51.956;12.980;2022-10-01T03:16:36;7.20;99.90
29201;DHT22;16244;51.956;12.980;2022-10-01T03:19:03;7.20;99.90
29201;DHT22;16244;51.956;12.980;2022-10-01T03:21:32;7.20;99.90
29201;DHT22;16244;51.956;12.980;2022-10-01T03:23:59;7.30;99.90
29201;DHT22;16244;51.956;12.980;2022-10-01T03:26:26;7.30;99.90
29201;DHT22;16244;51.956;12.980;2022-10-01T03:28:53;7.30;99.90
29201;DHT22;16244;51.956;12.980;2022-10-01T03:31:20;7.20;99.90
29201;DHT22;16244;51.956;12.980;2022-10-01T03:33:47;7.20;99.90
29201;DHT22;16244;51.956;12.980;2022-10-01T03:36:14;7.20;99.90
29201;DHT22;16244;51.956;12.980;2022-10-01T03:38:42;7.20;99.90
29201;DHT22;16244;51.956;12.980;2022-10-01T03:41:10;7.30;99.90
29201;DHT22;16244;51.956;12.980;2022-10-01T03:43:37;7.30;99.90
29201;DHT22;16244;51.956;12.980;2022-10-01T03:46:04;7.30;99.90
29201;DHT22;16244;51.956;12.980;2022-10-01T03:48:31;7.30;99.90
29201;DHT22;16244;51.956;12.980;2022-10-01T03:50:58;7.30;99.90
29201;DHT22;16244;51.956;12.980;2022-10-01T03:53:26;7.30;99.90
29201;DHT22;16244;51.956;12.980;2022-10-01T03:55:55;7.30;99.90
29201;DHT22;16244;51.956;12.980;2022-10-01T03:58:23;7.40;99.90
29201;DHT22;16244;51.956;12.980;2022-10-01T04:00:50;7.40;99.90
29201;DHT22;16244;51.956;12.980;2022-10-01T04:03:19;7.40;99.90
29201;DHT22;16244;51.956;12.980;2022-10-01T04:05:47;7.40;99.90
29201;DHT22;16244;51.956;12.980;2022-10-01T04:08:15;7.40;99.90
29201;DHT22;16244;51.956;12.980;2022-10-01T04:10:42;7.40;99.90
29201;DHT22;16244;51.956;12.980;2022-10-01T04:13:10;7.40;99.90
29201;DHT22;16244;51.956;12.980;2022-10-01T04:15:37;7.40;99.90
29201;DHT22;16244;51.956;12.980;2022-10-01T04:18:05;7.40;99.90
29201;DHT22;16244;51.956;12.980;2022-10-01T04:20:33;7.40;99.90
29201;DHT22;16244;51.956;12.980;2022-10-01T04:23:01;7.40;99.90
29201;DHT22;16244;51.956;12.980;2022-10-01T04:25:29;7.50;99.90
29201;DHT22;16244;51.956;12.980;2022-10-01T04:27:59;7.50;99.90
29201;DHT22;16244;51.956;12.980;2022-10-01T04:30:29;7.50;99.90
29201;DHT22;16244;51.956;12.980;2022-10-01T04:32:56;7.50;99.90
29201;DHT22;16244;51.956;12.980;2022-10-01T04:35:24;7.50;99.90
29201;DHT22;16244;51.956;12.980;2022-10-01T04:37:55;7.50;99.90
29201;DHT22;16244;51.956;12.980;2022-10-01T04:40:24;7.50;99.90
29201;DHT22;16244;51.956;12.980;2022-10-01T04:42:51;7.50;99.90
29201;DHT22;16244;51.956;12.980;2022-10-01T04:45:18;7.50;99.90
29201;DHT22;16244;51.956;12.980;2022-10-01T04:47:51;7.50;99.90
29201;DHT22;16244;51.956;12.980;2022-10-01T04:50:19;7.50;99.90
29201;DHT22;16244;51.956;12.980;2022-10-01T04:52:46;7.50;99.90
29201;DHT22;16244;51.956;12.980;2022-10-01T04:55:15;7.50;99.90
29201;DHT22;16244;51.956;12.980;2022-10-01T04:57:42;7.50;99.90
29201;DHT22;16244;51.956;12.980;2022-10-01T05:00:11;7.50;99.90
29201;DHT22;16244;51.956;12.980;2022-10-01T05:02:39;7.50;99.90
29201;DHT22;16244;51.956;12.980;2022-10-01T05:05:08;7.50;99.90
29201;DHT22;16244;51.956;12.980;2022-10-01T05:07:35;7.50;99.90
29201;DHT22;16244;51.956;12.980;2022-10-01T05:10:05;7.50;99.90
29201;DHT22;16244;51.956;12.980;2022-10-01T05:12:33;7.50;99.90
29201;DHT22;16244;51.956;12.980;2022-10-01T05:15:00;7.50;99.90
29201;DHT22;16244;51.956;12.980;2022-10-01T05:17:28;7.50;99.90
29201;DHT22;16244;51.956;12.980;2022-10-01T05:20:09;7.60;99.90
29201;DHT22;16244;51.956;12.980;2022-10-01T05:22:40;7.60;99.90
29201;DHT22;16244;51.956;12.980;2022-10-01T05:25:07;7.60;99.90
29201;DHT22;16244;51.956;12.980;2022-10-01T05:27:34;7.60;99.90
29201;DHT22;16244;51.956;12.980;2022-10-01T05:30:03;7.60;99.90
29201;DHT22;16244;51.956;12.980;2022-10-01T05:32:30;7.60;99.90
29201;DHT22;16244;51.956;12.980;2022-10-01T05:34:57;7.70;99.90
29201;DHT22;16244;51.956;12.980;2022-10-01T05:37:26;7.70;99.90
29201;DHT22;16244;51.956;12.980;2022-10-01T05:39:53;7.70;99.90
29201;DHT22;16244;51.956;12.980;2022-10-01T05:42:20;7.70;99.90
29201;DHT22;16244;51.956;12.980;2022-10-01T05:44:47;7.70;99.90
29201;DHT22;16244;51.956;12.980;2022-10-01T05:47:15;7.70;99.90
29201;DHT22;16244;51.956;12.980;2022-10-01T05:49:48;7.70;99.90
29201;DHT22;16244;51.956;12.980;2022-10-01T05:52:17;7.80;99.90
29201;DHT22;16244;51.956;12.980;2022-10-01T05:55:01;7.80;99.90
29201;DHT22;16244;51.956;12.980;2022-10-01T05:57:52;7.80;99.90
29201;DHT22;16244;51.956;12.980;2022-10-01T06:00:28;7.90;99.90
29201;DHT22;16244;51.956;12.980;2022-10-01T06:02:56;8.00;99.90
29201;DHT22;16244;51.956;12.980;2022-10-01T06:05:42;8.10;99.90
29201;DHT22;16244;51.956;12.980;2022-10-01T06:08:26;8.20;99.90
29201;DHT22;16244;51.956;12.980;2022-10-01T06:11:21;8.30;99.90
29201;DHT22;16244;51.956;12.980;2022-10-01T06:14:04;8.40;99.90
29201;DHT22;16244;51.956;12.980;2022-10-01T06:16:52;8.50;99.90
29201;DHT22;16244;51.956;12.980;2022-10-01T06:19:35;8.60;99.90
29201;DHT22;16244;51.956;12.980;2022-10-01T06:22:28;8.70;99.90
29201;DHT22;16244;51.956;12.980;2022-10-01T06:24:55;8.80;99.90
29201;DHT22;16244;51.956;12.980;2022-10-01T06:27:22;8.80;99.90
29201;DHT22;16244;51.956;12.980;2022-10-01T06:29:49;8.80;99.90
29201;DHT22;16244;51.956;12.980;2022-10-01T06:32:16;8.80;99.90
29201;DHT22;16244;51.956;12.980;2022-10-01T06:34:44;8.90;99.90
29201;DHT22;16244;51.956;12.980;2022-10-01T06:37:11;8.90;99.90
29201;DHT22;16244;51.956;12.980;2022-10-01T06:39:40;8.90;99.90
29201;DHT22;16244;51.956;12.980;2022-10-01T06:42:09;8.90;99.90
29201;DHT22;16244;51.956;12.980;2022-10-01T06:44:36;9.00;99.90
29201;DHT22;16244;51.956;12.980;2022-10-01T06:47:03;9.00;99.90
29201;DHT22;16244;51.956;12.980;2022-10-01T06:49:31;9.00;99.90
29201;DHT22;16244;51.956;12.980;2022-10-01T06:51:59;9.00;99.90
29201;DHT22;16244;51.956;12.980;2022-10-01T06:54:45;9.00;99.90
29201;DHT22;16244;51.956;12.980;2022-10-01T06:57:12;9.00;99.90
29201;DHT22;16244;51.956;12.980;2022-10-01T06:59:39;9.00;99.90
29201;DHT22;16244;51.956;12.980;2022-10-01T07:02:10;9.10;99.90
29201;DHT22;16244;51.956;12.980;2022-10-01T07:04:46;9.10;99.90
29201;DHT22;16244;51.956;12.980;2022-10-01T07:07:13;9.10;99.90
29201;DHT22;16244;51.956;12.980;2022-10-01T07:09:40;9.20;99.90
29201;DHT22;16244;51.956;12.980;2022-10-01T07:12:09;9.30;99.90
29201;DHT22;16244;51.956;12.980;2022-10-01T07:14:36;9.30;99.90
29201;DHT22;16244;51.956;12.980;2022-10-01T07:17:03;9.40;99.90
29201;DHT22;16244;51.956;12.980;2022-10-01T07:19:30;9.50;99.90
29201;DHT22;16244;51.956;12.980;2022-10-01T07:21:57;9.60;99.90
29201;DHT22;16244;51.956;12.980;2022-10-01T07:24:24;9.70;99.90
29201;DHT22;16244;51.956;12.980;2022-10-01T07:26:51;9.80;99.90
29201;DHT22;16244;51.956;12.980;2022-10-01T07:29:22;9.80;99.90
29201;DHT22;16244;51.956;12.980;2022-10-01T07:31:49;9.90;99.90
29201;DHT22;16244;51.956;12.980;2022-10-01T07:34:16;10.00;99.90
29201;DHT22;16244;51.956;12.980;2022-10-01T07:36:44;10.10;99.90
29201;DHT22;16244;51.956;12.980;2022-10-01T07:39:11;10.20;99.90
29201;DHT22;16244;51.956;12.980;2022-10-01T07:41:38;10.20;99.90
29201;DHT22;16244;51.956;12.980;2022-10-01T07:44:07;10.30;99.90
29201;DHT22;16244;51.956;12.980;2022-10-01T07:46:38;10.40;99.90
29201;DHT22;16244;51.956;12.980;2022-10-01T07:49:07;10.50;99.90
29201;DHT22;16244;51.956;12.980;2022-10-01T07:51:34;10.50;99.90
29201;DHT22;16244;51.956;12.980;2022-10-01T07:54:02;10.50;99.90
29201;DHT22;16244;51.956;12.980;2022-10-01T07:56:29;10.60;99.90
29201;DHT22;16244;51.956;12.980;2022-10-01T07:58:56;10.60;99.90
29201;DHT22;16244;51.956;12.980;2022-10-01T08:01:24;10.70;99.90
29201;DHT22;16244;51.956;12.980;2022-10-01T08:03:53;10.80;99.90
29201;DHT22;16244;51.956;12.980;2022-10-01T08:06:21;10.80;99.90
29201;DHT22;16244;51.956;12.980;2022-10-01T08:08:48;10.90;99.90
29201;DHT22;16244;51.956;12.980;2022-10-01T08:11:15;11.00;99.90
29201;DHT22;16244;51.956;12.980;2022-10-01T08:13:43;11.00;99.90
29201;DHT22;16244;51.956;12.980;2022-10-01T08:16:11;11.10;99.90
29201;DHT22;16244;51.956;12.980;2022-10-01T08:18:39;11.20;99.90
29201;DHT22;16244;51.956;12.980;2022-10-01T08:21:07;11.30;99.90
29201;DHT22;16244;51.956;12.980;2022-10-01T08:23:35;11.30;99.90
29201;DHT22;16244;51.956;12.980;2022-10-01T08:26:04;11.40;99.90
29201;DHT22;16244;51.956;12.980;2022-10-01T08:28:32;11.40;99.90
29201;DHT22;16244;51.956;12.980;2022-10-01T08:31:03;11.40;99.90
29201;DHT22;16244;51.956;12.980;2022-10-01T08:33:32;11.40;99.90
29201;DHT22;16244;51.956;12.980;2022-10-01T08:36:00;11.40;99.90
29201;DHT22;16244;51.956;12.980;2022-10-01T08:38:29;11.30;99.90
29201;DHT22;16244;51.956;12.980;2022-10-01T08:40:59;11.30;99.90
29201;DHT22;16244;51.956;12.980;2022-10-01T08:43:31;11.20;99.90
29201;DHT22;16244;51.956;12.980;2022-10-01T08:46:02;11.20;99.90
29201;DHT22;16244;51.956;12.980;2022-10-01T08:48:42;11.20;99.90
29201;DHT22;16244;51.956;12.980;2022-10-01T08:51:18;11.20;99.90
29201;DHT22;16244;51.956;12.980;2022-10-01T08:53:52;11.20;99.90
29201;DHT22;16244;51.956;12.980;2022-10-01T08:56:23;11.20;99.90
29201;DHT22;16244;51.956;12.980;2022-10-01T08:58:56;11.10;99.90
29201;DHT22;16244;51.956;12.980;2022-10-01T09:01:24;11.10;99.90
29201;DHT22;16244;51.956;12.980;2022-10-01T09:03:51;11.20;99.90
29201;DHT22;16244;51.956;12.980;2022-10-01T09:06:21;11.10;99.90
29201;DHT22;16244;51.956;12.980;2022-10-01T09:09:08;11.10;99.90
29201;DHT22;16244;51.956;12.980;2022-10-01T09:11:56;11.10;99.90
29201;DHT22;16244;51.956;12.980;2022-10-01T09:14:38;11.10;99.90
29201;DHT22;16244;51.956;12.980;2022-10-01T09:17:15;11.10;99.90
29201;DHT22;16244;51.956;12.980;2022-10-01T09:20:04;11.10;99.90
29201;DHT22;16244;51.956;12.980;2022-10-01T09:22:38;11.00;99.90
29201;DHT22;16244;51.956;12.980;2022-10-01T09:25:24;11.00;99.90
29201;DHT22;16244;51.956;12.980;2022-10-01T09:27:59;11.00;99.90
29201;DHT22;16244;51.956;12.980;2022-10-01T09:30:27;10.90;99.90
29201;DHT22;16244;51.956;12.980;2022-10-01T09:33:01;10.90;99.90
29201;DHT22;16244;51.956;12.980;2022-10-01T09:35:36;10.90;99.90
29201;DHT22;16244;51.956;12.980;2022-10-01T09:38:12;10.90;99.90
29201;DHT22;16244;51.956;12.980;2022-10-01T09:40:47;10.90;99.90
29201;DHT22;16244;51.956;12.980;2022-10-01T09:43:17;10.80;99.90
29201;DHT22;16244;51.956;12.980;2022-10-01T09:45:48;10.80;99.90
29201;DHT22;16244;51.956;12.980;2022-10-01T09:48:22;10.80;99.90
29201;DHT22;16244;51.956;12.980;2022-10-01T09:50:53;10.70;99.90
29201;DHT22;16244;51.956;12.980;2022-10-01T09:53:28;10.80;99.90
29201;DHT22;16244;51.956;12.980;2022-10-01T09:56:01;10.70;99.90
29201;DHT22;16244;51.956;12.980;2022-10-01T09:58:29;10.70;99.90
29201;DHT22;16244;51.956;12.980;2022-10-01T10:00:58;10.70;99.90
29201;DHT22;16244;51.956;12.980;2022-10-01T10:03:28;10.70;99.90
29201;DHT22;16244;51.956;12.980;2022-10-01T10:06:04;10.80;99.90
29201;DHT22;16244;51.956;12.980;2022-10-01T10:08:33;10.80;99.90
29201;DHT22;16244;51.956;12.980;2022-10-01T10:11:05;10.80;99.90
29201;DHT22;16244;51.956;12.980;2022-10-01T10:13:36;10.80;99.90
29201;DHT22;16244;51.956;12.980;2022-10-01T10:16:08;10.80;99.90
29201;DHT22;16244;51.956;12.980;2022-10-01T10:18:37;10.80;99.90
29201;DHT22;16244;51.956;12.980;2022-10-01T10:21:11;10.70;99.90
29201;DHT22;16244;51.956;12.980;2022-10-01T10:23:50;10.70;99.90
29201;DHT22;16244;51.956;12.980;2022-10-01T10:26:24;10.70;99.90
29201;DHT22;16244;51.956;12.980;2022-10-01T10:28:53;10.60;99.90
29201;DHT22;16244;51.956;12.980;2022-10-01T10:31:24;10.60;99.90
29201;DHT22;16244;51.956;12.980;2022-10-01T10:33:53;10.60;99.90
29201;DHT22;16244;51.956;12.980;2022-10-01T10:36:26;10.60;99.90
29201;DHT22;16244;51.956;12.980;2022-10-01T10:38:55;10.50;99.90
29201;DHT22;16244;51.956;12.980;2022-10-01T10:41:27;10.60;99.90
29201;DHT22;16244;51.956;12.980;2022-10-01T10:43:56;10.60;99.90
29201;DHT22;16244;51.956;12.980;2022-10-01T10:46:28;10.60;99.90
29201;DHT22;16244;51.956;12.980;2022-10-01T10:49:03;10.50;99.90
29201;DHT22;16244;51.956;12.980;2022-10-01T10:51:47;10.50;99.90
29201;DHT22;16244;51.956;12.980;2022-10-01T10:54:21;10.50;99.90
29201;DHT22;16244;51.956;12.980;2022-10-01T10:56:58;10.60;99.90
29201;DHT22;16244;51.956;12.980;2022-10-01T10:59:28;10.50;99.90
29201;DHT22;16244;51.956;12.980;2022-10-01T11:01:58;10.60;99.90
29201;DHT22;16244;51.956;12.980;2022-10-01T11:04:39;10.60;99.90
29201;DHT22;16244;51.956;12.980;2022-10-01T11:07:08;10.60;99.90
29201;DHT22;16244;51.956;12.980;2022-10-01T11:09:58;10.60;99.90
29201;DHT22;16244;51.956;12.980;2022-10-01T11:12:44;10.70;99.90
29201;DHT22;16244;51.956;12.980;2022-10-01T11:15:27;10.70;99.90
29201;DHT22;16244;51.956;12.980;2022-10-01T11:18:11;10.70;99.90
29201;DHT22;16244;51.956;12.980;2022-10-01T11:20:50;10.70;99.90
29201;DHT22;16244;51.956;12.980;2022-10-01T11:23:53;10.70;99.90
29201;DHT22;16244;51.956;12.980;2022-10-01T11:26:31;10.80;99.90
29201;DHT22;16244;51.956;12.980;2022-10-01T11:29:13;10.70;99.90
29201;DHT22;16244;51.956;12.980;2022-10-01T11:31:50;10.70;99.90
29201;DHT22;16244;51.956;12.980;2022-10-01T11:37:30;10.80;99.90
29201;DHT22;16244;51.956;12.980;2022-10-01T11:40:10;10.80;99.90
29201;DHT22;16244;51.956;12.980;2022-10-01T11:42:41;10.80;99.90
29201;DHT22;16244;51.956;12.980;2022-10-01T11:45:16;10.90;99.90
29201;DHT22;16244;51.956;12.980;2022-10-01T11:47:48;10.90;99.90
29201;DHT22;16244;51.956;12.980;2022-10-01T11:50:18;10.90;99.90
29201;DHT22;16244;51.956;12.980;2022-10-01T11:52:49;10.90;99.90
29201;DHT22;16244;51.956;12.980;2022-10-01T11:55:21;10.90;99.90
29201;DHT22;16244;51.956;12.980;2022-10-01T11:58:13;10.90;99.90
29201;DHT22;16244;51.956;12.980;2022-10-01T12:01:04;10.90;99.90
29201;DHT22;16244;51.956;12.980;2022-10-01T12:03:39;10.90;99.90
29201;DHT22;16244;51.956;12.980;2022-10-01T12:06:11;10.90;99.90
29201;DHT22;16244;51.956;12.980;2022-10-01T12:08:44;10.90;99.90
29201;DHT22;16244;51.956;12.980;2022-10-01T12:11:16;11.00;99.90
29201;DHT22;16244;51.956;12.980;2022-10-01T12:13:49;10.90;99.90
29201;DHT22;16244;51.956;12.980;2022-10-01T12:16:27;11.00;99.90
29201;DHT22;16244;51.956;12.980;2022-10-01T12:18:59;10.90;99.90
29201;DHT22;16244;51.956;12.980;2022-10-01T12:21:31;10.90;99.90
29201;DHT22;16244;51.956;12.980;2022-10-01T12:24:02;10.90;99.90
29201;DHT22;16244;51.956;12.980;2022-10-01T12:26:37;11.00;99.90
29201;DHT22;16244;51.956;12.980;2022-10-01T12:29:12;11.00;99.90
29201;DHT22;16244;51.956;12.980;2022-10-01T12:31:48;11.00;99.90
29201;DHT22;16244;51.956;12.980;2022-10-01T12:34:24;11.00;99.90
29201;DHT22;16244;51.956;12.980;2022-10-01T12:37:03;11.10;99.90
29201;DHT22;16244;51.956;12.980;2022-10-01T12:39:43;11.10;99.90
29201;DHT22;16244;51.956;12.980;2022-10-01T12:45:12;11.10;99.90
29201;DHT22;16244;51.956;12.980;2022-10-01T12:47:48;11.10;99.90
29201;DHT22;16244;51.956;12.980;2022-10-01T12:50:23;11.20;99.90
29201;DHT22;16244;51.956;12.980;2022-10-01T12:53:02;11.20;99.90
29201;DHT22;16244;51.956;12.980;2022-10-01T12:55:45;11.30;99.90
29201;DHT22;16244;51.956;12.980;2022-10-01T12:58:28;11.30;99.90
29201;DHT22;16244;51.956;12.980;2022-10-01T13:01:02;11.30;99.90
29201;DHT22;16244;51.956;12.980;2022-10-01T13:04:00;11.30;99.90
29201;DHT22;16244;51.956;12.980;2022-10-01T13:06:34;11.40;99.90
29201;DHT22;16244;51.956;12.980;2022-10-01T13:09:09;11.40;99.90
29201;DHT22;16244;51.956;12.980;2022-10-01T13:11:51;11.40;99.90
29201;DHT22;16244;51.956;12.980;2022-10-01T13:14:24;11.50;99.90
29201;DHT22;16244;51.956;12.980;2022-10-01T13:16:57;11.50;99.90
29201;DHT22;16244;51.956;12.980;2022-10-01T13:19:34;11.50;99.90
29201;DHT22;16244;51.956;12.980;2022-10-01T13:22:09;11.50;99.90
29201;DHT22;16244;51.956;12.980;2022-10-01T13:24:43;11.50;99.90
29201;DHT22;16244;51.956;12.980;2022-10-01T13:27:17;11.50;99.90
29201;DHT22;16244;51.956;12.980;2022-10-01T13:29:54;11.50;99.90
29201;DHT22;16244;51.956;12.980;2022-10-01T13:32:26;11.50;99.90
29201;DHT22;16244;51.956;12.980;2022-10-01T13:34:56;11.60;99.90
29201;DHT22;16244;51.956;12.980;2022-10-01T13:37:33;11.60;99.90
29201;DHT22;16244;51.956;12.980;2022-10-01T13:40:01;11.60;99.90
29201;DHT22;16244;51.956;12.980;2022-10-01T13:42:31;11.60;99.90
29201;DHT22;16244;51.956;12.980;2022-10-01T13:45:05;11.60;99.90
29201;DHT22;16244;51.956;12.980;2022-10-01T13:47:34;11.80;99.90
29201;DHT22;16244;51.956;12.980;2022-10-01T13:50:18;11.80;99.90
29201;DHT22;16244;51.956;12.980;2022-10-01T13:52:46;11.90;99.90
29201;DHT22;16244;51.956;12.980;2022-10-01T13:55:25;11.90;99.90
29201;DHT22;16244;51.956;12.980;2022-10-01T13:58:01;12.00;99.90
29201;DHT22;16244;51.956;12.980;2022-10-01T14:00:28;12.00;99.90
29201;DHT22;16244;51.956;12.980;2022-10-01T14:03:02;12.10;99.90
29201;DHT22;16244;51.956;12.980;2022-10-01T14:05:35;12.10;99.90
29201;DHT22;16244;51.956;12.980;2022-10-01T14:08:11;12.10;99.90
29201;DHT22;16244;51.956;12.980;2022-10-01T14:10:44;12.10;99.90
29201;DHT22;16244;51.956;12.980;2022-10-01T14:13:43;12.10;99.90
29201;DHT22;16244;51.956;12.980;2022-10-01T14:16:30;12.20;99.90
29201;DHT22;16244;51.956;12.980;2022-10-01T14:19:02;12.20;99.90
29201;DHT22;16244;51.956;12.980;2022-10-01T14:21:52;12.20;99.90
29201;DHT22;16244;51.956;12.980;2022-10-01T14:24:29;12.30;99.90
29201;DHT22;16244;51.956;12.980;2022-10-01T14:27:03;12.30;99.90
29201;DHT22;16244;51.956;12.980;2022-10-01T14:29:44;12.30;99.90
29201;DHT22;16244;51.956;12.980;2022-10-01T14:32:24;12.30;99.90
29201;DHT22;16244;51.956;12.980;2022-10-01T14:35:04;12.40;99.90
29201;DHT22;16244;51.956;12.980;2022-10-01T14:37:37;12.40;99.90
29201;DHT22;16244;51.956;12.980;2022-10-01T14:40:14;12.40;99.90
29201;DHT22;16244;51.956;12.980;2022-10-01T14:42:42;12.50;99.90
29201;DHT22;16244;51.956;12.980;2022-10-01T14:45:14;12.50;99.90
29201;DHT22;16244;51.956;12.980;2022-10-01T14:47:41;12.50;99.90
29201;DHT22;16244;51.956;12.980;2022-10-01T14:50:09;12.50;99.90
29201;DHT22;16244;51.956;12.980;2022-10-01T14:52:40;12.60;99.90
29201;DHT22;16244;51.956;12.980;2022-10-01T14:55:12;12.60;99.90
29201;DHT22;16244;51.956;12.980;2022-10-01T14:57:42;12.60;99.90
29201;DHT22;16244;51.956;12.980;2022-10-01T15:00:14;12.60;99.90
29201;DHT22;16244;51.956;12.980;2022-10-01T15:02:46;12.70;99.90
29201;DHT22;16244;51.956;12.980;2022-10-01T15:05:20;12.70;99.90
29201;DHT22;16244;51.956;12.980;2022-10-01T15:07:49;12.70;99.90
29201;DHT22;16244;51.956;12.980;2022-10-01T15:10:18;12.70;99.90
29201;DHT22;16244;51.956;12.980;2022-10-01T15:12:46;12.80;99.90
29201;DHT22;16244;51.956;12.980;2022-10-01T15:15:17;12.90;99.90
29201;DHT22;16244;51.956;12.980;2022-10-01T15:17:45;13.00;99.90
29201;DHT22;16244;51.956;12.980;2022-10-01T15:20:13;13.10;99.90
29201;DHT22;16244;51.956;12.980;2022-10-01T15:22:42;13.20;99.90
29201;DHT22;16244;51.956;12.980;2022-10-01T15:25:17;13.20;99.90
29201;DHT22;16244;51.956;12.980;2022-10-01T15:27:45;13.20;99.90
29201;DHT22;16244;51.956;12.980;2022-10-01T15:30:15;13.20;99.90
29201;DHT22;16244;51.956;12.980;2022-10-01T15:32:43;13.10;99.90
29201;DHT22;16244;51.956;12.980;2022-10-01T15:35:13;13.00;99.90
29201;DHT22;16244;51.956;12.980;2022-10-01T15:37:41;13.00;99.90
29201;DHT22;16244;51.956;12.980;2022-10-01T15:40:21;12.90;99.90
29201;DHT22;16244;51.956;12.980;2022-10-01T15:43:12;12.90;99.90
29201;DHT22;16244;51.956;12.980;2022-10-01T15:46:08;12.90;99.90
29201;DHT22;16244;51.956;12.980;2022-10-01T15:48:36;12.80;99.90
29201;DHT22;16244;51.956;12.980;2022-10-01T15:51:06;12.70;99.90
29201;DHT22;16244;51.956;12.980;2022-10-01T15:53:37;12.70;99.90
29201;DHT22;16244;51.956;12.980;2022-10-01T15:56:09;12.60;99.90
29201;DHT22;16244;51.956;12.980;2022-10-01T15:58:44;12.60;99.90
29201;DHT22;16244;51.956;12.980;2022-10-01T16:01:14;12.50;99.90
29201;DHT22;16244;51.956;12.980;2022-10-01T16:06:16;12.50;99.90